createdAt,value
2022-10-06T00:01:08.423Z,99.90
2022-10-06T00:03:37.587Z,99.90
2022-10-06T00:06:07.101Z,99.90
2022-10-06T00:08:38.439Z,99.90
2022-10-06T00:11:06.919Z,99.90
2022-10-06T00:13:35.503Z,99.90
2022-10-06T00:16:04.186Z,99.90
2022-10-06T00:18:33.643Z,99.90
2022-10-06T00:21:04.133Z,99.90
2022-10-06T00:23:32.206Z,99.90
2022-10-06T00:26:00.289Z,99.90
2022-10-06T00:28:28.876Z,99.90
2022-10-06T00:30:57.171Z,99.90
2022-10-06T00:33:37.202Z,99.90
2022-10-06T00:36:05.369Z,99.90
2022-10-06T00:38:33.559Z,99.90
2022-10-06T00:41:04.863Z,99.90
2022-10-06T00:43:52.142Z,99.90
2022-10-06T00:46:26.434Z,99.90
2022-10-06T00:49:00.958Z,99.90
2022-10-06T00:51:31.621Z,99.90
2022-10-06T00:54:01.716Z,99.90
2022-10-06T00:56:29.908Z,99.90
2022-10-06T00:58:57.926Z,99.90
2022-10-06T01:01:26.783Z,99.90
2022-10-06T01:04:03.875Z,99.90
2022-10-06T01:06:45.087Z,99.90
2022-10-06T01:09:14.276Z,99.90
2022-10-06T01:11:42.493Z,99.90
2022-10-06T01:14:11.136Z,99.90
2022-10-06T01:16:42.007Z,99.90
2022-10-06T01:19:21.715Z,99.90
2022-10-06T01:21:52.075Z,99.90
2022-10-06T01:24:21.657Z,99.90
2022-10-06T01:26:52.535Z,99.90
2022-10-06T01:29:21.127Z,99.90
2022-10-06T01:31:50.262Z,99.90
2022-10-06T01:34:18.403Z,99.90
2022-10-06T01:36:46.589Z,99.90
2022-10-06T01:39:15.093Z,99.90
2022-10-06T01:41:47.582Z,99.90
2022-10-06T01:44:16.205Z,99.90
2022-10-06T01:46:44.280Z,99.90
2022-10-06T01:49:12.340Z,99.90
2022-10-06T01:51:40.605Z,99.90
2022-10-06T01:54:08.989Z,99.90
2022-10-06T01:56:37.035Z,99.90
2022-10-06T01:59:06.931Z,99.90
2022-10-06T02:01:35.803Z,99.90
2022-10-06T02:04:04.184Z,99.90
2022-10-06T02:06:32.391Z,99.90
2022-10-06T02:09:01.548Z,99.90
2022-10-06T02:11:30.259Z,99.90
2022-10-06T02:13:59.816Z,99.90
2022-10-06T02:16:29.960Z,99.90
2022-10-06T02:18:58.029Z,99.90
2022-10-06T02:21:26.417Z,99.90
2022-10-06T02:23:54.449Z,99.90
2022-10-06T02:26:22.510Z,99.90
2022-10-06T02:28:52.037Z,99.90
2022-10-06T02:31:24.334Z,99.90
2022-10-06T02:33:54.507Z,99.90
2022-10-06T02:36:23.871Z,99.90
2022-10-06T02:38:52.196Z,99.90
2022-10-06T02:41:20.730Z,99.90
2022-10-06T02:43:48.742Z,99.90
2022-10-06T02:46:16.921Z,99.90
2022-10-06T02:48:48.954Z,99.90
2022-10-06T02:51:21.547Z,99.90
2022-10-06T02:53:50.792Z,99.90
2022-10-06T02:56:22.014Z,99.90
2022-10-06T02:58:51.669Z,99.90
2022-10-06T03:01:30.054Z,99.90
2022-10-06T03:04:01.111Z,99.90
2022-10-06T03:06:31.715Z,99.90
2022-10-06T03:09:13.846Z,99.90
2022-10-06T03:11:44.773Z,99.90
2022-10-06T03:14:21.520Z,99.90
2022-10-06T03:16:51.537Z,99.90
2022-10-06T03:19:26.226Z,99.90
2022-10-06T03:21:56.493Z,99.90
2022-10-06T03:24:35.492Z,99.90
2022-10-06T03:27:03.659Z,99.90
2022-10-06T03:29:31.703Z,99.90
2022-10-06T03:32:00.166Z,99.90
2022-10-06T03:34:34.275Z,99.90
2022-10-06T03:37:06.499Z,99.90
2022-10-06T03:39:34.724Z,99.90
2022-10-06T03:42:03.182Z,99.90
2022-10-06T03:44:34.790Z,99.90
2022-10-06T03:47:03.316Z,99.90
2022-10-06T03:49:32.918Z,99.90
2022-10-06T03:52:00.993Z,99.90
2022-10-06T03:54:34.379Z,99.90
2022-10-06T03:57:02.459Z,99.90
2022-10-06T03:59:34.329Z,99.90
2022-10-06T04:02:20.988Z,99.90
2022-10-06T04:04:49.142Z,99.90
2022-10-06T04:07:17.104Z,99.90
2022-10-06T04:09:47.937Z,99.90
2022-10-06T04:12:17.611Z,99.90
2022-10-06T04:14:45.724Z,99.90
2022-10-06T04:17:13.767Z,99.90
2022-10-06T04:19:42.726Z,99.90
2022-10-06T04:22:10.736Z,99.90
2022-10-06T04:24:38.833Z,99.90
2022-10-06T04:27:26.047Z,99.90
2022-10-06T04:30:00.859Z,99.90
2022-10-06T04:32:29.572Z,99.90
2022-10-06T04:34:57.867Z,99.90
2022-10-06T04:37:28.282Z,99.90
2022-10-06T04:39:56.614Z,99.90
2022-10-06T04:42:34.644Z,99.90
2022-10-06T04:45:04.932Z,99.90
2022-10-06T04:47:33.302Z,99.90
2022-10-06T04:50:01.391Z,99.90
2022-10-06T04:52:34.012Z,99.90
2022-10-06T04:55:03.122Z,99.90
2022-10-06T04:57:32.597Z,99.90
2022-10-06T05:00:18.459Z,99.90
2022-10-06T05:02:47.938Z,99.90
2022-10-06T05:05:17.398Z,99.90
2022-10-06T05:07:46.060Z,99.90
2022-10-06T05:10:15.004Z,99.90
2022-10-06T05:12:44.438Z,99.90
2022-10-06T05:15:12.888Z,99.90
2022-10-06T05:17:41.061Z,99.90
2022-10-06T05:20:10.927Z,99.90
2022-10-06T05:22:39.195Z,99.90
2022-10-06T05:25:08.162Z,99.90
2022-10-06T05:27:36.433Z,99.90
2022-10-06T05:30:06.441Z,99.90
2022-10-06T05:32:36.230Z,99.90
2022-10-06T05:35:06.079Z,99.90
2022-10-06T05:37:34.263Z,99.90
2022-10-06T05:40:03.007Z,99.90
2022-10-06T05:42:31.201Z,99.90
2022-10-06T05:45:01.536Z,99.90
2022-10-06T05:47:49.190Z,99.90
2022-10-06T05:50:18.801Z,99.90
2022-10-06T05:52:48.349Z,99.90
2022-10-06T05:55:16.786Z,99.90
2022-10-06T05:57:44.955Z,99.90
2022-10-06T06:00:13.763Z,99.90
2022-10-06T06:02:44.226Z,99.90
2022-10-06T06:05:15.824Z,99.90
2022-10-06T06:07:43.956Z,99.90
2022-10-06T06:10:12.005Z,99.90
2022-10-06T06:12:40.065Z,99.90
2022-10-06T06:15:50.565Z,99.90
2022-10-06T06:18:19.188Z,99.90
2022-10-06T06:20:58.206Z,99.90
2022-10-06T06:23:31.350Z,99.90
2022-10-06T06:26:02.408Z,99.90
2022-10-06T06:28:32.171Z,99.90
2022-10-06T06:31:03.498Z,99.90
2022-10-06T06:33:32.278Z,99.90
2022-10-06T06:36:03.252Z,99.90
2022-10-06T06:38:32.940Z,99.90
2022-10-06T06:41:01.127Z,99.90
2022-10-06T06:43:29.627Z,99.90
2022-10-06T06:46:16.766Z,99.90
2022-10-06T06:49:04.095Z,99.90
2022-10-06T06:51:38.063Z,99.90
2022-10-06T06:54:06.750Z,99.90
2022-10-06T06:56:38.878Z,99.90
2022-10-06T06:59:11.966Z,99.90
2022-10-06T07:01:45.691Z,99.90
2022-10-06T07:04:17.515Z,99.90
2022-10-06T07:06:58.302Z,99.90
2022-10-06T07:09:35.900Z,99.90
2022-10-06T07:12:08.956Z,99.90
2022-10-06T07:14:57.077Z,99.90
2022-10-06T07:17:43.460Z,99.90
2022-10-06T07:20:29.763Z,99.90
2022-10-06T07:23:17.776Z,99.90
2022-10-06T07:25:45.885Z,99.90
2022-10-06T07:28:17.076Z,99.90
2022-10-06T07:30:45.809Z,99.90
2022-10-06T07:33:15.752Z,99.90
2022-10-06T07:35:45.482Z,99.90
2022-10-06T07:38:16.374Z,99.90
2022-10-06T07:41:18.273Z,99.90
2022-10-06T07:43:42.971Z,99.90
2022-10-06T07:46:11.709Z,99.90
2022-10-06T07:48:46.684Z,99.90
2022-10-06T07:51:15.905Z,99.90
2022-10-06T07:53:50.098Z,99.90
2022-10-06T07:56:40.186Z,99.90
2022-10-06T07:59:08.235Z,99.90
2022-10-06T08:01:36.828Z,99.90
2022-10-06T08:04:06.973Z,99.90
2022-10-06T08:06:35.300Z,99.90
2022-10-06T08:09:05.317Z,99.90
2022-10-06T08:11:33.976Z,99.90
2022-10-06T08:14:01.995Z,99.90
2022-10-06T08:16:30.554Z,99.90
2022-10-06T08:18:59.987Z,99.90
2022-10-06T08:21:29.851Z,99.90
2022-10-06T08:23:59.317Z,99.90
2022-10-06T08:26:30.055Z,99.90
2022-10-06T08:29:02.950Z,99.90
2022-10-06T08:31:31.943Z,99.90
2022-10-06T08:34:01.286Z,99.90
2022-10-06T08:36:31.840Z,99.90
2022-10-06T08:39:00.961Z,99.90
2022-10-06T08:41:40.191Z,99.90
2022-10-06T08:44:19.726Z,99.90
2022-10-06T08:46:53.335Z,99.90
2022-10-06T08:49:24.291Z,99.90
2022-10-06T08:52:02.122Z,99.90
2022-10-06T08:54:39.690Z,99.90
2022-10-06T08:57:18.837Z,99.90
2022-10-06T08:59:50.065Z,99.90
2022-10-06T09:02:31.155Z,99.90
2022-10-06T09:05:02.654Z,99.90
2022-10-06T09:07:42.841Z,99.90
2022-10-06T09:10:27.818Z,99.90
2022-10-06T09:13:01.717Z,99.90
2022-10-06T09:15:35.061Z,99.90
2022-10-06T09:18:10.613Z,99.90
2022-10-06T09:20:44.630Z,99.90
2022-10-06T09:23:38.010Z,99.90
2022-10-06T09:26:06.908Z,99.90
2022-10-06T09:28:37.456Z,99.90
2022-10-06T09:31:16.614Z,99.90
2022-10-06T09:33:45.162Z,99.90
2022-10-06T09:36:13.311Z,99.90
2022-10-06T09:38:53.860Z,99.90
2022-10-06T09:41:25.688Z,99.90
2022-10-06T09:43:58.451Z,99.90
2022-10-06T09:46:32.778Z,99.90
2022-10-06T09:49:08.766Z,99.90
2022-10-06T09:51:39.284Z,99.90
2022-10-06T09:54:14.201Z,99.90
2022-10-06T09:56:43.274Z,99.90
2022-10-06T09:59:21.606Z,99.90
2022-10-06T10:01:53.706Z,99.90
2022-10-06T10:04:26.829Z,99.90
2022-10-06T10:06:55.065Z,99.90
2022-10-06T10:09:27.773Z,99.90
2022-10-06T10:12:21.579Z,98.00
2022-10-06T10:14:51.208Z,92.80
2022-10-06T10:17:22.850Z,93.30
2022-10-06T10:19:54.388Z,93.30
2022-10-06T10:22:26.010Z,91.70
2022-10-06T10:25:05.399Z,90.90
2022-10-06T10:27:44.426Z,90.70
2022-10-06T10:30:15.092Z,87.90
2022-10-06T10:33:02.653Z,84.10
2022-10-06T10:35:32.981Z,82.30
2022-10-06T10:38:05.697Z,80.40
2022-10-06T10:40:42.989Z,81.20
2022-10-06T10:43:32.646Z,76.00
2022-10-06T10:46:06.758Z,72.60
2022-10-06T10:48:40.745Z,72.60
2022-10-06T10:51:13.544Z,73.10
2022-10-06T10:53:47.829Z,72.40
2022-10-06T10:56:19.503Z,74.80
2022-10-06T10:58:50.338Z,74.30
2022-10-06T11:01:30.179Z,73.20
2022-10-06T11:03:59.373Z,69.20
2022-10-06T11:06:47.890Z,69.20
2022-10-06T11:09:22.017Z,68.70
2022-10-06T11:12:01.136Z,67.90
2022-10-06T11:14:45.835Z,68.10
2022-10-06T11:17:27.169Z,66.00
2022-10-06T11:20:05.906Z,67.60
2022-10-06T11:22:42.467Z,65.90
2022-10-06T11:25:22.746Z,64.60
2022-10-06T11:28:00.707Z,65.90
2022-10-06T11:30:30.582Z,68.60
2022-10-06T11:33:11.047Z,68.50
2022-10-06T11:35:43.014Z,67.30
2022-10-06T11:38:18.600Z,68.50
2022-10-06T11:41:09.761Z,65.00
2022-10-06T11:43:47.884Z,64.70
2022-10-06T11:46:32.102Z,63.60
2022-10-06T11:49:53.216Z,66.30
2022-10-06T11:52:47.724Z,65.00
2022-10-06T11:55:20.241Z,64.10
2022-10-06T11:58:29.694Z,62.50
2022-10-06T12:00:56.555Z,63.50
2022-10-06T12:04:09.219Z,63.40
2022-10-06T12:07:07.461Z,64.00
2022-10-06T12:09:51.730Z,65.20
2022-10-06T12:13:05.260Z,66.10
2022-10-06T12:19:20.163Z,65.60
2022-10-06T12:21:58.250Z,65.90
2022-10-06T12:24:36.824Z,67.50
2022-10-06T12:27:29.222Z,65.20
2022-10-06T12:30:03.721Z,66.80
2022-10-06T12:32:57.066Z,66.10
2022-10-06T12:35:31.517Z,67.90
2022-10-06T12:38:04.552Z,67.00
2022-10-06T12:40:55.148Z,68.00
2022-10-06T12:43:53.827Z,67.80
2022-10-06T12:46:35.609Z,68.60
2022-10-06T12:49:15.850Z,69.60
2022-10-06T12:51:45.891Z,69.00
2022-10-06T12:54:20.373Z,69.50
2022-10-06T12:56:58.851Z,70.30
2022-10-06T12:59:31.935Z,71.00
2022-10-06T13:02:02.060Z,72.10
2022-10-06T13:04:40.076Z,69.20
2022-10-06T13:07:16.378Z,70.90
2022-10-06T13:09:45.405Z,69.70
2022-10-06T13:12:30.845Z,69.70
2022-10-06T13:15:16.321Z,72.40
2022-10-06T13:18:13.118Z,71.00
2022-10-06T13:20:43.113Z,71.20
2022-10-06T13:23:25.261Z,68.80
2022-10-06T13:25:58.646Z,69.40
2022-10-06T13:28:32.599Z,69.80
2022-10-06T13:31:04.058Z,70.70
2022-10-06T13:33:36.092Z,71.20
2022-10-06T13:36:04.309Z,70.20
2022-10-06T13:38:35.050Z,72.10
2022-10-06T13:41:20.286Z,73.00
2022-10-06T13:43:51.106Z,71.70
2022-10-06T13:46:22.400Z,74.00
2022-10-06T13:48:54.100Z,73.00
2022-10-06T13:51:25.553Z,74.00
2022-10-06T13:53:54.123Z,74.10
2022-10-06T13:59:36.997Z,75.70
2022-10-06T14:02:25.879Z,77.40
2022-10-06T14:05:26.746Z,74.70
2022-10-06T14:07:57.665Z,72.00
2022-10-06T14:10:31.328Z,72.90
2022-10-06T14:13:01.610Z,74.10
2022-10-06T14:15:38.245Z,71.80
2022-10-06T14:18:23.510Z,74.00
2022-10-06T14:20:53.359Z,71.40
2022-10-06T14:23:51.649Z,73.90
2022-10-06T14:26:28.958Z,73.30
2022-10-06T14:28:57.519Z,73.60
2022-10-06T14:31:28.431Z,75.10
2022-10-06T14:33:58.091Z,74.30
2022-10-06T14:36:28.643Z,74.70
2022-10-06T14:38:58.302Z,75.00
2022-10-06T14:41:27.751Z,74.80
2022-10-06T14:43:57.339Z,76.30
2022-10-06T14:46:26.754Z,74.80
2022-10-06T14:48:55.650Z,75.70
2022-10-06T14:51:26.279Z,76.70
2022-10-06T14:53:55.466Z,75.10
2022-10-06T14:56:25.718Z,78.00
2022-10-06T14:58:54.201Z,78.10
2022-10-06T15:01:25.257Z,77.40
2022-10-06T15:03:53.841Z,76.70
2022-10-06T15:06:39.351Z,76.20
2022-10-06T15:09:09.144Z,76.70
2022-10-06T15:11:38.289Z,76.20
2022-10-06T15:14:08.585Z,76.90
2022-10-06T15:16:40.510Z,77.10
2022-10-06T15:19:09.084Z,78.00
2022-10-06T15:21:39.714Z,79.00
2022-10-06T15:24:13.355Z,77.90
2022-10-06T15:26:58.810Z,80.60
2022-10-06T15:29:27.200Z,79.50
2022-10-06T15:31:55.579Z,81.50
2022-10-06T15:34:25.705Z,81.50
2022-10-06T15:36:55.316Z,82.50
2022-10-06T15:39:26.299Z,81.00
2022-10-06T15:41:54.928Z,80.90
2022-10-06T15:44:23.693Z,81.30
2022-10-06T15:46:58.382Z,80.40
2022-10-06T15:49:28.793Z,80.10
2022-10-06T15:51:59.557Z,80.50
2022-10-06T15:54:30.612Z,80.10
2022-10-06T15:57:00.280Z,80.60
2022-10-06T15:59:31.580Z,82.20
2022-10-06T16:02:03.229Z,81.30
2022-10-06T16:04:35.949Z,82.00
2022-10-06T16:07:04.326Z,82.20
2022-10-06T16:09:39.312Z,81.90
2022-10-06T16:12:12.367Z,81.20
2022-10-06T16:14:40.613Z,83.70
2022-10-06T16:17:09.561Z,83.90
2022-10-06T16:19:37.891Z,83.40
2022-10-06T16:22:07.276Z,83.70
2022-10-06T16:24:36.696Z,84.50
2022-10-06T16:27:05.060Z,86.50
2022-10-06T16:29:33.121Z,86.80
2022-10-06T16:32:01.123Z,87.10
2022-10-06T16:34:31.227Z,87.80
2022-10-06T16:36:59.312Z,88.20
2022-10-06T16:39:27.378Z,89.10
2022-10-06T16:41:56.805Z,90.60
2022-10-06T16:44:24.829Z,90.40
2022-10-06T16:46:55.755Z,90.80
2022-10-06T16:49:24.432Z,91.70
2022-10-06T16:51:52.473Z,92.20
2022-10-06T16:54:20.868Z,92.60
2022-10-06T16:56:51.984Z,92.40
2022-10-06T16:59:22.999Z,92.60
2022-10-06T17:01:51.914Z,93.20
2022-10-06T17:04:21.432Z,93.80
2022-10-06T17:06:51.548Z,94.80
2022-10-06T17:09:21.681Z,96.40
2022-10-06T17:11:51.240Z,96.90
2022-10-06T17:14:21.888Z,97.30
2022-10-06T17:16:52.163Z,97.70
2022-10-06T17:19:22.118Z,98.50
2022-10-06T17:21:55.730Z,98.90
2022-10-06T17:24:27.946Z,99.40
2022-10-06T17:26:57.363Z,99.40
2022-10-06T17:29:27.442Z,99.90
2022-10-06T17:31:59.126Z,99.90
2022-10-06T17:34:32.320Z,99.90
2022-10-06T17:37:02.543Z,99.90
2022-10-06T17:39:30.956Z,99.90
2022-10-06T17:41:58.952Z,99.90
2022-10-06T17:44:29.161Z,99.90
2022-10-06T17:46:58.910Z,99.90
2022-10-06T17:49:28.556Z,99.90
2022-10-06T17:51:56.878Z,99.90
2022-10-06T17:54:27.015Z,99.90
2022-10-06T17:56:56.693Z,99.90
2022-10-06T17:59:28.525Z,99.90
2022-10-06T18:02:13.278Z,99.90
2022-10-06T18:04:41.503Z,99.90
2022-10-06T18:07:10.036Z,99.90
2022-10-06T18:09:38.058Z,1.00
2022-10-06T18:12:07.566Z,1.00
2022-10-06T18:14:35.611Z,99.90
2022-10-06T18:17:05.233Z,99.90
2022-10-06T18:19:34.939Z,1.00
2022-10-06T18:22:06.794Z,1.00
2022-10-06T18:24:34.763Z,1.00
2022-10-06T18:27:02.970Z,1.00
2022-10-06T18:29:32.696Z,1.00
2022-10-06T18:32:27.270Z,3.10
2022-10-06T18:37:38.895Z,38.30
2022-10-06T18:40:09.911Z,54.40
2022-10-06T18:42:38.910Z,91.00
2022-10-06T18:45:26.050Z,82.30
2022-10-06T18:48:11.787Z,53.60
2022-10-06T18:50:41.160Z,43.10
2022-10-06T18:53:09.159Z,92.80
2022-10-06T18:55:37.709Z,91.90
2022-10-06T18:58:06.374Z,85.00
2022-10-06T19:00:34.644Z,95.30
2022-10-06T19:03:02.630Z,99.90
2022-10-06T19:05:30.956Z,97.70
2022-10-06T19:08:00.341Z,99.90
2022-10-06T19:10:29.694Z,92.70
2022-10-06T19:12:58.295Z,87.30
2022-10-06T19:15:26.406Z,95.80
2022-10-06T19:17:55.228Z,99.90
2022-10-06T19:20:23.385Z,99.90
2022-10-06T19:22:51.365Z,99.90
2022-10-06T19:25:23.838Z,99.90
2022-10-06T19:27:51.841Z,99.90
2022-10-06T19:30:19.918Z,99.90
2022-10-06T19:32:50.105Z,99.90
2022-10-06T19:35:18.418Z,99.90
2022-10-06T19:37:46.626Z,99.90
2022-10-06T19:40:15.072Z,99.90
2022-10-06T19:42:49.339Z,99.90
2022-10-06T19:45:20.552Z,99.90
2022-10-06T19:47:48.601Z,99.90
2022-10-06T19:50:17.574Z,99.90
2022-10-06T19:52:46.319Z,99.90
2022-10-06T19:55:14.465Z,99.90
2022-10-06T19:57:44.051Z,99.90
2022-10-06T20:00:13.344Z,99.90
2022-10-06T20:02:43.171Z,99.90
2022-10-06T20:05:12.611Z,99.90
2022-10-06T20:07:41.229Z,99.90
2022-10-06T20:10:09.775Z,99.90
2022-10-06T20:12:38.343Z,99.90
2022-10-06T20:15:09.680Z,99.90
2022-10-06T20:17:37.782Z,99.90
2022-10-06T20:20:06.721Z,99.90
2022-10-06T20:22:34.778Z,99.90
2022-10-06T20:25:02.856Z,99.90
2022-10-06T20:27:31.181Z,99.90
2022-10-06T20:29:59.173Z,99.90
2022-10-06T20:32:28.547Z,99.90
2022-10-06T20:34:57.940Z,99.90
2022-10-06T20:37:25.985Z,99.90
2022-10-06T20:40:13.414Z,99.90
2022-10-06T20:42:44.708Z,99.90
2022-10-06T20:45:12.751Z,99.90
2022-10-06T20:47:42.430Z,99.90
2022-10-06T20:50:11.124Z,99.90
2022-10-06T20:52:39.616Z,99.90
2022-10-06T20:55:08.854Z,99.90
2022-10-06T20:57:36.904Z,99.90
2022-10-06T21:00:07.267Z,99.90
2022-10-06T21:02:35.288Z,99.90
2022-10-06T21:05:05.238Z,99.90
2022-10-06T21:07:34.289Z,99.90
2022-10-06T21:10:02.405Z,99.90
2022-10-06T21:12:30.467Z,99.90
2022-10-06T21:14:58.454Z,99.90
2022-10-06T21:17:26.578Z,99.90
2022-10-06T21:19:54.720Z,99.90
2022-10-06T21:22:24.205Z,99.90
2022-10-06T21:24:52.268Z,99.90
2022-10-06T21:27:21.001Z,99.90
2022-10-06T21:29:49.022Z,99.90
2022-10-06T21:32:17.093Z,99.90
2022-10-06T21:34:45.105Z,99.90
2022-10-06T21:37:13.769Z,99.90
2022-10-06T21:39:43.105Z,99.90
2022-10-06T21:42:11.148Z,99.90
2022-10-06T21:44:39.162Z,99.90
2022-10-06T21:47:07.202Z,99.90
2022-10-06T21:49:35.238Z,99.90
2022-10-06T21:52:05.299Z,99.90
2022-10-06T21:54:33.337Z,99.90
2022-10-06T21:57:02.694Z,99.90
2022-10-06T21:59:30.709Z,99.90
2022-10-06T22:01:59.823Z,99.90
2022-10-06T22:04:29.344Z,99.90
2022-10-06T22:06:57.369Z,99.90
2022-10-06T22:09:25.379Z,99.90
2022-10-06T22:11:53.380Z,99.90
2022-10-06T22:14:22.725Z,99.90
2022-10-06T22:16:50.697Z,99.90
2022-10-06T22:19:19.072Z,99.90
2022-10-06T22:21:48.860Z,99.90
2022-10-06T22:24:18.132Z,99.90
2022-10-06T22:26:46.628Z,99.90
2022-10-06T22:29:16.339Z,99.90
2022-10-06T22:31:47.767Z,99.90
2022-10-06T22:34:18.303Z,99.90
2022-10-06T22:36:46.542Z,99.90
2022-10-06T22:39:14.543Z,99.90
2022-10-06T22:41:42.591Z,99.90
2022-10-06T22:44:10.723Z,99.90
2022-10-06T22:46:39.099Z,99.90
2022-10-06T22:49:08.497Z,99.90
2022-10-06T22:51:36.572Z,99.90
2022-10-06T22:54:05.149Z,99.90
2022-10-06T22:56:34.637Z,99.90
2022-10-06T22:59:02.920Z,99.90
2022-10-06T23:01:31.602Z,99.90
2022-10-06T23:03:59.828Z,99.90
2022-10-06T23:06:31.110Z,99.90
2022-10-06T23:08:59.962Z,99.90
2022-10-06T23:11:28.352Z,99.90
2022-10-06T23:13:56.358Z,99.90
2022-10-06T23:16:24.467Z,99.90
2022-10-06T23:18:52.556Z,99.90
2022-10-06T23:21:22.627Z,99.90
2022-10-06T23:23:54.085Z,99.90
2022-10-06T23:26:23.103Z,99.90
2022-10-06T23:28:55.735Z,99.90
2022-10-06T23:31:24.174Z,99.90
2022-10-06T23:33:52.560Z,99.90
2022-10-06T23:36:20.739Z,99.90
2022-10-06T23:38:48.844Z,99.90
2022-10-06T23:41:18.721Z,99.90
2022-10-06T23:43:47.034Z,99.90
2022-10-06T23:46:15.571Z,99.90
2022-10-06T23:48:44.028Z,99.90
2022-10-06T23:51:13.705Z,99.90
2022-10-06T23:53:41.878Z,99.90
2022-10-06T23:56:10.065Z,99.90
2022-10-06T23:58:39.917Z,99.90
